sensor_id;sensor_type;location;lat;lon;timestamp;P1;durP1;ratioP1;P2;durP2;ratioP2
8540;SDS011;4308;51.294;6.590;2023-07-31T00:00:25;8.63;;;5.03;;
8540;SDS011;4308;51.294;6.590;2023-07-31T00:02:52;13.63;;;5.67;;
8540;SDS011;4308;51.294;6.590;2023-07-31T00:05:22;11.07;;;5.53;;
8540;SDS011;4308;51.294;6.590;2023-07-31T00:07:50;10.23;;;4.83;;
8540;SDS011;4308;51.294;6.590;2023-07-31T00:10:17;13.23;;;5.57;;
8540;SDS011;4308;51.294;6.590;2023-07-31T00:12:45;12.23;;;5.23;;
8540;SDS011;4308;51.294;6.590;2023-07-31T00:15:13;10.13;;;5.10;;
8540;SDS011;4308;51.294;6.590;2023-07-31T00:17:41;10.23;;;4.97;;
8540;SDS011;4308;51.294;6.590;2023-07-31T00:20:08;10.33;;;5.00;;
8540;SDS011;4308;51.294;6.590;2023-07-31T00:22:36;12.00;;;5.23;;
8540;SDS011;4308;51.294;6.590;2023-07-31T00:25:04;13.90;;;5.23;;
8540;SDS011;4308;51.294;6.590;2023-07-31T00:27:32;13.10;;;4.93;;
8540;SDS011;4308;51.294;6.590;2023-07-31T00:29:59;9.47;;;4.83;;
8540;SDS011;4308;51.294;6.590;2023-07-31T00:32:27;9.97;;;5.17;;
8540;SDS011;4308;51.294;6.590;2023-07-31T00:34:55;8.37;;;4.10;;
8540;SDS011;4308;51.294;6.590;2023-07-31T00:37:22;11.77;;;4.73;;
8540;SDS011;4308;51.294;6.590;2023-07-31T00:39:50;10.10;;;5.07;;
8540;SDS011;4308;51.294;6.590;2023-07-31T00:42:17;14.17;;;5.73;;
8540;SDS011;4308;51.294;6.590;2023-07-31T00:44:45;13.83;;;5.27;;
8540;SDS011;4308;51.294;6.590;2023-07-31T00:47:13;10.47;;;4.23;;
8540;SDS011;4308;51.294;6.590;2023-07-31T00:49:40;11.17;;;4.67;;
8540;SDS011;4308;51.294;6.590;2023-07-31T00:52:08;11.57;;;5.30;;
8540;SDS011;4308;51.294;6.590;2023-07-31T00:54:36;9.97;;;4.97;;
8540;SDS011;4308;51.294;6.590;2023-07-31T00:57:04;11.63;;;4.63;;
8540;SDS011;4308;51.294;6.590;2023-07-31T00:59:32;10.40;;;4.63;;
8540;SDS011;4308;51.294;6.590;2023-07-31T01:01:59;10.93;;;4.93;;
8540;SDS011;4308;51.294;6.590;2023-07-31T01:04:27;9.27;;;4.47;;
8540;SDS011;4308;51.294;6.590;2023-07-31T01:11:53;10.77;;;4.33;;
8540;SDS011;4308;51.294;6.590;2023-07-31T01:14:24;11.37;;;4.40;;
8540;SDS011;4308;51.294;6.590;2023-07-31T01:17:00;10.57;;;4.67;;
8540;SDS011;4308;51.294;6.590;2023-07-31T01:19:28;11.77;;;4.63;;
8540;SDS011;4308;51.294;6.590;2023-07-31T01:27:14;9.47;;;5.17;;
8540;SDS011;4308;51.294;6.590;2023-07-31T01:32:10;10.50;;;4.83;;
8540;SDS011;4308;51.294;6.590;2023-07-31T01:34:38;11.73;;;4.83;;
8540;SDS011;4308;51.294;6.590;2023-07-31T01:37:07;11.60;;;5.47;;
8540;SDS011;4308;51.294;6.590;2023-07-31T01:39:34;10.90;;;4.87;;
8540;SDS011;4308;51.294;6.590;2023-07-31T01:42:02;12.73;;;4.63;;
8540;SDS011;4308;51.294;6.590;2023-07-31T01:44:30;15.73;;;4.67;;
8540;SDS011;4308;51.294;6.590;2023-07-31T01:46:57;9.40;;;4.47;;
8540;SDS011;4308;51.294;6.590;2023-07-31T01:49:25;13.53;;;5.40;;
8540;SDS011;4308;51.294;6.590;2023-07-31T01:51:52;9.07;;;4.80;;
8540;SDS011;4308;51.294;6.590;2023-07-31T01:54:20;13.57;;;5.20;;
8540;SDS011;4308;51.294;6.590;2023-07-31T01:56:48;9.50;;;4.97;;
8540;SDS011;4308;51.294;6.590;2023-07-31T01:59:15;11.63;;;4.93;;
8540;SDS011;4308;51.294;6.590;2023-07-31T02:01:43;12.60;;;5.07;;
8540;SDS011;4308;51.294;6.590;2023-07-31T02:04:10;8.33;;;4.23;;
8540;SDS011;4308;51.294;6.590;2023-07-31T02:06:38;13.17;;;5.50;;
8540;SDS011;4308;51.294;6.590;2023-07-31T02:09:06;10.43;;;5.10;;
8540;SDS011;4308;51.294;6.590;2023-07-31T02:11:34;13.80;;;5.00;;
8540;SDS011;4308;51.294;6.590;2023-07-31T02:14:02;16.27;;;5.30;;
8540;SDS011;4308;51.294;6.590;2023-07-31T02:16:29;9.97;;;4.93;;
8540;SDS011;4308;51.294;6.590;2023-07-31T02:18:57;10.53;;;5.03;;
8540;SDS011;4308;51.294;6.590;2023-07-31T02:21:25;12.37;;;5.30;;
8540;SDS011;4308;51.294;6.590;2023-07-31T02:23:52;13.73;;;5.20;;
8540;SDS011;4308;51.294;6.590;2023-07-31T02:26:20;10.40;;;5.20;;
8540;SDS011;4308;51.294;6.590;2023-07-31T02:28:47;14.53;;;5.30;;
8540;SDS011;4308;51.294;6.590;2023-07-31T02:31:15;16.23;;;6.07;;
8540;SDS011;4308;51.294;6.590;2023-07-31T02:33:45;12.27;;;5.27;;
8540;SDS011;4308;51.294;6.590;2023-07-31T02:36:12;15.40;;;5.90;;
8540;SDS011;4308;51.294;6.590;2023-07-31T02:38:40;13.03;;;4.93;;
8540;SDS011;4308;51.294;6.590;2023-07-31T02:41:07;15.00;;;5.60;;
8540;SDS011;4308;51.294;6.590;2023-07-31T02:43:35;10.13;;;5.20;;
8540;SDS011;4308;51.294;6.590;2023-07-31T02:46:02;17.00;;;6.27;;
8540;SDS011;4308;51.294;6.590;2023-07-31T02:48:30;12.67;;;5.50;;
8540;SDS011;4308;51.294;6.590;2023-07-31T02:50:58;19.17;;;5.97;;
8540;SDS011;4308;51.294;6.590;2023-07-31T02:53:25;11.67;;;4.70;;
8540;SDS011;4308;51.294;6.590;2023-07-31T02:55:53;15.70;;;5.17;;
8540;SDS011;4308;51.294;6.590;2023-07-31T02:58:20;10.87;;;4.80;;
8540;SDS011;4308;51.294;6.590;2023-07-31T03:00:48;17.47;;;5.47;;
8540;SDS011;4308;51.294;6.590;2023-07-31T03:03:16;11.57;;;5.80;;
8540;SDS011;4308;51.294;6.590;2023-07-31T03:05:43;10.63;;;4.80;;
8540;SDS011;4308;51.294;6.590;2023-07-31T03:08:11;12.73;;;5.20;;
8540;SDS011;4308;51.294;6.590;2023-07-31T03:10:38;10.87;;;5.77;;
8540;SDS011;4308;51.294;6.590;2023-07-31T03:13:06;13.07;;;5.10;;
8540;SDS011;4308;51.294;6.590;2023-07-31T03:15:34;8.90;;;4.40;;
8540;SDS011;4308;51.294;6.590;2023-07-31T03:18:04;10.77;;;5.30;;
8540;SDS011;4308;51.294;6.590;2023-07-31T03:20:32;13.07;;;5.20;;
8540;SDS011;4308;51.294;6.590;2023-07-31T03:22:59;10.50;;;5.63;;
8540;SDS011;4308;51.294;6.590;2023-07-31T03:25:27;7.73;;;4.53;;
8540;SDS011;4308;51.294;6.590;2023-07-31T03:27:55;11.77;;;4.93;;
8540;SDS011;4308;51.294;6.590;2023-07-31T03:30:22;18.70;;;5.03;;
8540;SDS011;4308;51.294;6.590;2023-07-31T03:32:50;11.20;;;4.90;;
8540;SDS011;4308;51.294;6.590;2023-07-31T03:35:18;11.20;;;5.37;;
8540;SDS011;4308;51.294;6.590;2023-07-31T03:37:45;12.40;;;5.00;;
8540;SDS011;4308;51.294;6.590;2023-07-31T03:40:13;9.47;;;5.00;;
8540;SDS011;4308;51.294;6.590;2023-07-31T03:42:40;9.03;;;5.80;;
8540;SDS011;4308;51.294;6.590;2023-07-31T03:45:08;10.87;;;5.33;;
8540;SDS011;4308;51.294;6.590;2023-07-31T03:47:36;10.17;;;5.23;;
8540;SDS011;4308;51.294;6.590;2023-07-31T03:50:03;12.20;;;5.43;;
8540;SDS011;4308;51.294;6.590;2023-07-31T03:52:31;12.47;;;4.83;;
8540;SDS011;4308;51.294;6.590;2023-07-31T03:54:59;11.73;;;4.60;;
8540;SDS011;4308;51.294;6.590;2023-07-31T03:57:26;12.20;;;4.70;;
8540;SDS011;4308;51.294;6.590;2023-07-31T03:59:54;11.60;;;5.30;;
8540;SDS011;4308;51.294;6.590;2023-07-31T04:02:21;10.77;;;5.13;;
8540;SDS011;4308;51.294;6.590;2023-07-31T04:04:49;13.10;;;5.03;;
8540;SDS011;4308;51.294;6.590;2023-07-31T04:07:17;9.60;;;5.20;;
8540;SDS011;4308;51.294;6.590;2023-07-31T04:09:44;12.90;;;5.27;;
8540;SDS011;4308;51.294;6.590;2023-07-31T04:12:12;11.20;;;5.20;;
8540;SDS011;4308;51.294;6.590;2023-07-31T04:14:39;12.37;;;5.33;;
8540;SDS011;4308;51.294;6.590;2023-07-31T04:17:07;13.20;;;5.27;;
8540;SDS011;4308;51.294;6.590;2023-07-31T04:19:38;13.27;;;5.77;;
8540;SDS011;4308;51.294;6.590;2023-07-31T04:22:05;10.73;;;5.40;;
8540;SDS011;4308;51.294;6.590;2023-07-31T04:24:33;12.53;;;5.00;;
8540;SDS011;4308;51.294;6.590;2023-07-31T04:27:00;9.33;;;4.97;;
8540;SDS011;4308;51.294;6.590;2023-07-31T04:29:28;16.07;;;6.23;;
8540;SDS011;4308;51.294;6.590;2023-07-31T04:31:57;11.80;;;5.33;;
8540;SDS011;4308;51.294;6.590;2023-07-31T04:34:25;10.73;;;5.13;;
8540;SDS011;4308;51.294;6.590;2023-07-31T04:36:53;9.40;;;5.57;;
8540;SDS011;4308;51.294;6.590;2023-07-31T04:39:20;9.43;;;5.30;;
8540;SDS011;4308;51.294;6.590;2023-07-31T04:41:48;10.83;;;5.70;;
8540;SDS011;4308;51.294;6.590;2023-07-31T04:44:16;12.07;;;5.70;;
8540;SDS011;4308;51.294;6.590;2023-07-31T04:46:43;8.67;;;5.47;;
8540;SDS011;4308;51.294;6.590;2023-07-31T04:49:11;10.00;;;5.30;;
8540;SDS011;4308;51.294;6.590;2023-07-31T04:51:39;10.37;;;5.10;;
8540;SDS011;4308;51.294;6.590;2023-07-31T04:54:06;10.87;;;5.87;;
8540;SDS011;4308;51.294;6.590;2023-07-31T04:56:34;13.33;;;5.43;;
8540;SDS011;4308;51.294;6.590;2023-07-31T04:59:02;14.17;;;5.63;;
8540;SDS011;4308;51.294;6.590;2023-07-31T05:01:29;12.90;;;5.87;;
8540;SDS011;4308;51.294;6.590;2023-07-31T05:03:57;8.00;;;5.20;;
8540;SDS011;4308;51.294;6.590;2023-07-31T05:06:25;10.83;;;5.17;;
8540;SDS011;4308;51.294;6.590;2023-07-31T05:08:52;7.60;;;5.10;;
8540;SDS011;4308;51.294;6.590;2023-07-31T05:11:20;7.83;;;5.10;;
8540;SDS011;4308;51.294;6.590;2023-07-31T05:13:48;11.53;;;5.27;;
8540;SDS011;4308;51.294;6.590;2023-07-31T05:16:15;8.13;;;5.70;;
8540;SDS011;4308;51.294;6.590;2023-07-31T05:18:43;9.33;;;5.20;;
8540;SDS011;4308;51.294;6.590;2023-07-31T05:21:11;9.33;;;5.53;;
8540;SDS011;4308;51.294;6.590;2023-07-31T05:23:39;8.13;;;5.10;;
8540;SDS011;4308;51.294;6.590;2023-07-31T05:26:06;9.67;;;4.73;;
8540;SDS011;4308;51.294;6.590;2023-07-31T05:28:34;10.07;;;5.20;;
8540;SDS011;4308;51.294;6.590;2023-07-31T05:31:02;9.57;;;4.87;;
8540;SDS011;4308;51.294;6.590;2023-07-31T05:33:30;9.40;;;5.13;;
8540;SDS011;4308;51.294;6.590;2023-07-31T05:35:58;8.40;;;5.17;;
8540;SDS011;4308;51.294;6.590;2023-07-31T05:38:26;22.97;;;8.30;;
8540;SDS011;4308;51.294;6.590;2023-07-31T05:40:53;11.73;;;5.40;;
8540;SDS011;4308;51.294;6.590;2023-07-31T05:43:21;10.70;;;5.70;;
8540;SDS011;4308;51.294;6.590;2023-07-31T05:45:48;6.63;;;4.70;;
8540;SDS011;4308;51.294;6.590;2023-07-31T05:48:16;9.37;;;5.50;;
8540;SDS011;4308;51.294;6.590;2023-07-31T05:50:44;13.57;;;5.70;;
8540;SDS011;4308;51.294;6.590;2023-07-31T05:53:11;10.17;;;5.17;;
8540;SDS011;4308;51.294;6.590;2023-07-31T05:55:39;9.23;;;5.10;;
8540;SDS011;4308;51.294;6.590;2023-07-31T05:58:06;8.50;;;4.70;;
8540;SDS011;4308;51.294;6.590;2023-07-31T06:00:34;8.87;;;5.43;;
8540;SDS011;4308;51.294;6.590;2023-07-31T06:03:02;13.13;;;5.37;;
8540;SDS011;4308;51.294;6.590;2023-07-31T06:05:29;11.80;;;5.33;;
8540;SDS011;4308;51.294;6.590;2023-07-31T06:07:57;9.67;;;5.27;;
8540;SDS011;4308;51.294;6.590;2023-07-31T06:10:25;9.77;;;5.53;;
8540;SDS011;4308;51.294;6.590;2023-07-31T06:12:52;10.50;;;5.17;;
8540;SDS011;4308;51.294;6.590;2023-07-31T06:15:20;10.20;;;5.50;;
8540;SDS011;4308;51.294;6.590;2023-07-31T06:17:48;12.50;;;5.73;;
8540;SDS011;4308;51.294;6.590;2023-07-31T06:20:15;10.20;;;6.13;;
8540;SDS011;4308;51.294;6.590;2023-07-31T06:22:43;11.43;;;5.33;;
8540;SDS011;4308;51.294;6.590;2023-07-31T06:25:11;9.03;;;5.20;;
8540;SDS011;4308;51.294;6.590;2023-07-31T06:27:41;10.53;;;5.20;;
8540;SDS011;4308;51.294;6.590;2023-07-31T06:30:09;7.87;;;5.07;;
8540;SDS011;4308;51.294;6.590;2023-07-31T06:32:37;9.40;;;5.00;;
8540;SDS011;4308;51.294;6.590;2023-07-31T06:35:04;9.53;;;5.73;;
8540;SDS011;4308;51.294;6.590;2023-07-31T06:37:32;8.93;;;4.70;;
8540;SDS011;4308;51.294;6.590;2023-07-31T06:40:03;9.83;;;5.00;;
8540;SDS011;4308;51.294;6.590;2023-07-31T06:42:31;7.73;;;4.83;;
8540;SDS011;4308;51.294;6.590;2023-07-31T06:44:58;8.27;;;5.00;;
8540;SDS011;4308;51.294;6.590;2023-07-31T06:47:26;9.70;;;4.80;;
8540;SDS011;4308;51.294;6.590;2023-07-31T06:49:55;7.80;;;4.53;;
8540;SDS011;4308;51.294;6.590;2023-07-31T06:52:22;7.93;;;4.63;;
8540;SDS011;4308;51.294;6.590;2023-07-31T06:55:03;9.40;;;5.40;;
8540;SDS011;4308;51.294;6.590;2023-07-31T06:57:32;9.07;;;5.70;;
8540;SDS011;4308;51.294;6.590;2023-07-31T06:59:59;9.87;;;6.17;;
8540;SDS011;4308;51.294;6.590;2023-07-31T07:02:27;9.73;;;5.07;;
8540;SDS011;4308;51.294;6.590;2023-07-31T07:04:55;10.23;;;4.77;;
8540;SDS011;4308;51.294;6.590;2023-07-31T07:07:22;12.30;;;5.40;;
8540;SDS011;4308;51.294;6.590;2023-07-31T07:09:50;10.77;;;5.23;;
8540;SDS011;4308;51.294;6.590;2023-07-31T07:12:18;9.23;;;5.00;;
8540;SDS011;4308;51.294;6.590;2023-07-31T07:14:45;7.80;;;4.50;;
8540;SDS011;4308;51.294;6.590;2023-07-31T07:17:13;11.40;;;4.90;;
8540;SDS011;4308;51.294;6.590;2023-07-31T07:19:41;6.50;;;5.03;;
8540;SDS011;4308;51.294;6.590;2023-07-31T07:22:09;9.27;;;5.43;;
8540;SDS011;4308;51.294;6.590;2023-07-31T07:24:37;14.83;;;6.03;;
8540;SDS011;4308;51.294;6.590;2023-07-31T07:27:05;11.27;;;5.27;;
8540;SDS011;4308;51.294;6.590;2023-07-31T07:29:35;9.53;;;5.10;;
8540;SDS011;4308;51.294;6.590;2023-07-31T07:32:03;8.53;;;5.33;;
8540;SDS011;4308;51.294;6.590;2023-07-31T07:34:31;8.27;;;4.67;;
8540;SDS011;4308;51.294;6.590;2023-07-31T07:36:58;10.17;;;4.40;;
8540;SDS011;4308;51.294;6.590;2023-07-31T07:39:26;7.73;;;4.57;;
8540;SDS011;4308;51.294;6.590;2023-07-31T07:41:53;6.77;;;4.40;;
8540;SDS011;4308;51.294;6.590;2023-07-31T07:44:21;10.03;;;4.10;;
8540;SDS011;4308;51.294;6.590;2023-07-31T07:46:49;4.70;;;3.70;;
8540;SDS011;4308;51.294;6.590;2023-07-31T07:49:16;7.03;;;3.93;;
8540;SDS011;4308;51.294;6.590;2023-07-31T07:51:44;5.30;;;3.60;;
8540;SDS011;4308;51.294;6.590;2023-07-31T07:54:11;4.00;;;3.13;;
8540;SDS011;4308;51.294;6.590;2023-07-31T07:56:39;6.90;;;3.37;;
8540;SDS011;4308;51.294;6.590;2023-07-31T07:59:07;4.93;;;3.50;;
8540;SDS011;4308;51.294;6.590;2023-07-31T08:01:35;5.50;;;3.37;;
8540;SDS011;4308;51.294;6.590;2023-07-31T08:04:02;5.60;;;3.37;;
8540;SDS011;4308;51.294;6.590;2023-07-31T08:06:30;5.77;;;3.40;;
8540;SDS011;4308;51.294;6.590;2023-07-31T08:08:58;7.40;;;3.90;;
8540;SDS011;4308;51.294;6.590;2023-07-31T08:11:26;6.70;;;3.83;;
8540;SDS011;4308;51.294;6.590;2023-07-31T08:13:53;5.97;;;3.67;;
8540;SDS011;4308;51.294;6.590;2023-07-31T08:16:21;6.17;;;3.57;;
8540;SDS011;4308;51.294;6.590;2023-07-31T08:18:49;4.93;;;3.37;;
8540;SDS011;4308;51.294;6.590;2023-07-31T08:21:16;5.70;;;3.13;;
8540;SDS011;4308;51.294;6.590;2023-07-31T08:23:44;5.03;;;3.30;;
8540;SDS011;4308;51.294;6.590;2023-07-31T08:26:15;6.57;;;3.60;;
8540;SDS011;4308;51.294;6.590;2023-07-31T08:28:43;5.17;;;3.47;;
8540;SDS011;4308;51.294;6.590;2023-07-31T08:31:11;5.63;;;3.50;;
8540;SDS011;4308;51.294;6.590;2023-07-31T08:33:39;6.50;;;3.57;;
8540;SDS011;4308;51.294;6.590;2023-07-31T08:36:06;6.93;;;3.83;;
8540;SDS011;4308;51.294;6.590;2023-07-31T08:38:34;6.20;;;3.20;;
8540;SDS011;4308;51.294;6.590;2023-07-31T08:41:05;5.00;;;3.17;;
8540;SDS011;4308;51.294;6.590;2023-07-31T08:43:32;4.93;;;3.10;;
8540;SDS011;4308;51.294;6.590;2023-07-31T08:46:00;6.73;;;3.37;;
8540;SDS011;4308;51.294;6.590;2023-07-31T08:48:29;3.33;;;2.80;;
8540;SDS011;4308;51.294;6.590;2023-07-31T08:50:58;5.47;;;3.50;;
8540;SDS011;4308;51.294;6.590;2023-07-31T08:53:26;6.30;;;3.50;;
8540;SDS011;4308;51.294;6.590;2023-07-31T08:55:53;5.53;;;3.27;;
8540;SDS011;4308;51.294;6.590;2023-07-31T08:58:22;5.13;;;3.57;;
8540;SDS011;4308;51.294;6.590;2023-07-31T09:00:51;5.90;;;3.70;;
8540;SDS011;4308;51.294;6.590;2023-07-31T09:03:21;6.30;;;3.73;;
8540;SDS011;4308;51.294;6.590;2023-07-31T09:05:50;4.60;;;3.33;;
8540;SDS011;4308;51.294;6.590;2023-07-31T09:08:18;4.40;;;3.20;;
8540;SDS011;4308;51.294;6.590;2023-07-31T09:10:49;3.10;;;2.77;;
8540;SDS011;4308;51.294;6.590;2023-07-31T09:13:16;5.10;;;2.83;;
8540;SDS011;4308;51.294;6.590;2023-07-31T09:15:44;4.53;;;2.93;;
8540;SDS011;4308;51.294;6.590;2023-07-31T09:18:12;4.97;;;3.47;;
8540;SDS011;4308;51.294;6.590;2023-07-31T09:20:40;5.83;;;3.20;;
8540;SDS011;4308;51.294;6.590;2023-07-31T09:23:11;6.33;;;3.60;;
8540;SDS011;4308;51.294;6.590;2023-07-31T09:25:40;5.50;;;3.73;;
8540;SDS011;4308;51.294;6.590;2023-07-31T09:28:10;5.97;;;3.20;;
8540;SDS011;4308;51.294;6.590;2023-07-31T09:30:46;5.67;;;3.40;;
8540;SDS011;4308;51.294;6.590;2023-07-31T09:33:14;5.60;;;3.37;;
8540;SDS011;4308;51.294;6.590;2023-07-31T09:35:42;5.07;;;3.73;;
8540;SDS011;4308;51.294;6.590;2023-07-31T09:38:10;5.27;;;3.47;;
8540;SDS011;4308;51.294;6.590;2023-07-31T09:40:38;4.17;;;3.00;;
8540;SDS011;4308;51.294;6.590;2023-07-31T09:43:13;5.37;;;3.27;;
8540;SDS011;4308;51.294;6.590;2023-07-31T09:45:44;5.30;;;3.40;;
8540;SDS011;4308;51.294;6.590;2023-07-31T09:51:00;6.27;;;3.33;;
8540;SDS011;4308;51.294;6.590;2023-07-31T09:53:31;4.20;;;2.90;;
8540;SDS011;4308;51.294;6.590;2023-07-31T09:55:59;4.63;;;3.43;;
8540;SDS011;4308;51.294;6.590;2023-07-31T09:59:05;6.10;;;3.40;;
8540;SDS011;4308;51.294;6.590;2023-07-31T10:01:35;6.43;;;3.37;;
8540;SDS011;4308;51.294;6.590;2023-07-31T10:04:03;8.20;;;3.90;;
8540;SDS011;4308;51.294;6.590;2023-07-31T10:06:32;4.07;;;3.40;;
8540;SDS011;4308;51.294;6.590;2023-07-31T10:09:00;5.43;;;3.50;;
8540;SDS011;4308;51.294;6.590;2023-07-31T10:11:28;5.43;;;3.20;;
8540;SDS011;4308;51.294;6.590;2023-07-31T10:13:57;4.30;;;3.23;;
8540;SDS011;4308;51.294;6.590;2023-07-31T10:16:25;6.27;;;3.43;;
8540;SDS011;4308;51.294;6.590;2023-07-31T10:18:55;5.93;;;2.90;;
8540;SDS011;4308;51.294;6.590;2023-07-31T10:21:23;6.27;;;3.57;;
8540;SDS011;4308;51.294;6.590;2023-07-31T10:23:50;3.60;;;2.90;;
8540;SDS011;4308;51.294;6.590;2023-07-31T10:26:18;3.63;;;3.27;;
8540;SDS011;4308;51.294;6.590;2023-07-31T10:28:46;6.37;;;3.70;;
8540;SDS011;4308;51.294;6.590;2023-07-31T10:31:14;7.77;;;3.53;;
8540;SDS011;4308;51.294;6.590;2023-07-31T10:33:42;5.70;;;3.30;;
8540;SDS011;4308;51.294;6.590;2023-07-31T10:36:13;5.63;;;3.00;;
8540;SDS011;4308;51.294;6.590;2023-07-31T10:38:44;5.20;;;3.23;;
8540;SDS011;4308;51.294;6.590;2023-07-31T10:41:11;6.90;;;3.60;;
8540;SDS011;4308;51.294;6.590;2023-07-31T10:43:39;6.20;;;3.30;;
8540;SDS011;4308;51.294;6.590;2023-07-31T10:46:07;7.37;;;3.73;;
8540;SDS011;4308;51.294;6.590;2023-07-31T10:48:37;6.27;;;3.53;;
8540;SDS011;4308;51.294;6.590;2023-07-31T10:51:08;6.60;;;3.63;;
8540;SDS011;4308;51.294;6.590;2023-07-31T10:53:36;6.13;;;3.37;;
8540;SDS011;4308;51.294;6.590;2023-07-31T10:56:04;5.50;;;3.07;;
8540;SDS011;4308;51.294;6.590;2023-07-31T10:58:32;4.13;;;2.77;;
8540;SDS011;4308;51.294;6.590;2023-07-31T11:01:03;7.33;;;2.83;;
8540;SDS011;4308;51.294;6.590;2023-07-31T11:06:09;3.33;;;2.40;;
8540;SDS011;4308;51.294;6.590;2023-07-31T11:08:46;4.70;;;2.97;;
8540;SDS011;4308;51.294;6.590;2023-07-31T11:11:14;4.47;;;2.67;;
8540;SDS011;4308;51.294;6.590;2023-07-31T11:13:47;4.63;;;2.77;;
8540;SDS011;4308;51.294;6.590;2023-07-31T11:16:15;3.20;;;2.73;;
8540;SDS011;4308;51.294;6.590;2023-07-31T11:18:43;5.80;;;2.87;;
8540;SDS011;4308;51.294;6.590;2023-07-31T11:21:12;6.10;;;2.90;;
8540;SDS011;4308;51.294;6.590;2023-07-31T11:23:39;5.43;;;2.83;;
8540;SDS011;4308;51.294;6.590;2023-07-31T11:26:07;2.80;;;2.50;;
8540;SDS011;4308;51.294;6.590;2023-07-31T11:28:35;4.63;;;2.47;;
8540;SDS011;4308;51.294;6.590;2023-07-31T11:31:02;3.93;;;2.17;;
8540;SDS011;4308;51.294;6.590;2023-07-31T11:33:30;3.90;;;2.80;;
8540;SDS011;4308;51.294;6.590;2023-07-31T11:35:58;3.80;;;2.57;;
8540;SDS011;4308;51.294;6.590;2023-07-31T11:38:27;4.83;;;2.60;;
8540;SDS011;4308;51.294;6.590;2023-07-31T11:40:57;4.13;;;2.40;;
8540;SDS011;4308;51.294;6.590;2023-07-31T11:43:24;2.33;;;2.13;;
8540;SDS011;4308;51.294;6.590;2023-07-31T11:45:53;4.27;;;2.40;;
8540;SDS011;4308;51.294;6.590;2023-07-31T11:48:22;4.07;;;2.17;;
8540;SDS011;4308;51.294;6.590;2023-07-31T11:50:50;2.57;;;2.13;;
8540;SDS011;4308;51.294;6.590;2023-07-31T11:53:19;4.17;;;2.10;;
8540;SDS011;4308;51.294;6.590;2023-07-31T11:55:48;6.10;;;2.50;;
8540;SDS011;4308;51.294;6.590;2023-07-31T11:58:16;3.60;;;2.53;;
8540;SDS011;4308;51.294;6.590;2023-07-31T12:00:45;3.37;;;2.30;;
8540;SDS011;4308;51.294;6.590;2023-07-31T12:03:13;4.93;;;2.50;;
8540;SDS011;4308;51.294;6.590;2023-07-31T12:05:41;3.23;;;2.10;;
8540;SDS011;4308;51.294;6.590;2023-07-31T12:08:09;2.57;;;2.17;;
8540;SDS011;4308;51.294;6.590;2023-07-31T12:10:37;5.77;;;2.87;;
8540;SDS011;4308;51.294;6.590;2023-07-31T12:13:05;4.40;;;2.50;;
8540;SDS011;4308;51.294;6.590;2023-07-31T12:18:03;2.70;;;2.10;;
8540;SDS011;4308;51.294;6.590;2023-07-31T12:20:31;2.83;;;2.20;;
8540;SDS011;4308;51.294;6.590;2023-07-31T12:22:59;2.23;;;1.70;;
8540;SDS011;4308;51.294;6.590;2023-07-31T12:25:30;3.00;;;1.83;;
8540;SDS011;4308;51.294;6.590;2023-07-31T12:28:03;4.60;;;2.27;;
8540;SDS011;4308;51.294;6.590;2023-07-31T12:30:32;3.03;;;2.40;;
8540;SDS011;4308;51.294;6.590;2023-07-31T12:33:15;3.43;;;2.70;;
8540;SDS011;4308;51.294;6.590;2023-07-31T12:35:44;3.47;;;2.37;;
8540;SDS011;4308;51.294;6.590;2023-07-31T12:38:12;3.00;;;2.50;;
8540;SDS011;4308;51.294;6.590;2023-07-31T12:40:41;3.33;;;2.57;;
8540;SDS011;4308;51.294;6.590;2023-07-31T12:43:09;4.17;;;2.33;;
8540;SDS011;4308;51.294;6.590;2023-07-31T12:45:36;4.23;;;2.93;;
8540;SDS011;4308;51.294;6.590;2023-07-31T12:48:04;4.00;;;2.43;;
8540;SDS011;4308;51.294;6.590;2023-07-31T12:50:33;2.63;;;2.33;;
8540;SDS011;4308;51.294;6.590;2023-07-31T12:53:01;3.40;;;2.90;;
8540;SDS011;4308;51.294;6.590;2023-07-31T12:55:28;3.47;;;2.40;;
8540;SDS011;4308;51.294;6.590;2023-07-31T12:57:56;4.73;;;2.53;;
8540;SDS011;4308;51.294;6.590;2023-07-31T13:00:24;3.60;;;2.47;;
8540;SDS011;4308;51.294;6.590;2023-07-31T13:02:51;3.10;;;2.73;;
8540;SDS011;4308;51.294;6.590;2023-07-31T13:05:19;3.70;;;2.60;;
8540;SDS011;4308;51.294;6.590;2023-07-31T13:07:50;7.50;;;3.17;;
8540;SDS011;4308;51.294;6.590;2023-07-31T13:10:19;5.70;;;3.27;;
8540;SDS011;4308;51.294;6.590;2023-07-31T13:12:47;5.40;;;3.30;;
8540;SDS011;4308;51.294;6.590;2023-07-31T13:15:14;3.40;;;3.03;;
8540;SDS011;4308;51.294;6.590;2023-07-31T13:17:42;4.83;;;3.40;;
8540;SDS011;4308;51.294;6.590;2023-07-31T13:20:10;6.07;;;3.47;;
8540;SDS011;4308;51.294;6.590;2023-07-31T13:22:37;4.73;;;3.50;;
8540;SDS011;4308;51.294;6.590;2023-07-31T13:25:05;4.23;;;3.27;;
8540;SDS011;4308;51.294;6.590;2023-07-31T13:27:35;4.87;;;3.40;;
8540;SDS011;4308;51.294;6.590;2023-07-31T13:30:03;6.47;;;3.63;;
8540;SDS011;4308;51.294;6.590;2023-07-31T13:32:30;7.13;;;3.03;;
8540;SDS011;4308;51.294;6.590;2023-07-31T13:34:58;4.23;;;3.30;;
8540;SDS011;4308;51.294;6.590;2023-07-31T13:37:25;6.90;;;3.30;;
8540;SDS011;4308;51.294;6.590;2023-07-31T13:39:53;6.33;;;3.30;;
8540;SDS011;4308;51.294;6.590;2023-07-31T13:42:21;5.53;;;4.00;;
8540;SDS011;4308;51.294;6.590;2023-07-31T13:44:48;8.17;;;3.90;;
8540;SDS011;4308;51.294;6.590;2023-07-31T13:47:16;5.60;;;3.60;;
8540;SDS011;4308;51.294;6.590;2023-07-31T13:49:43;5.20;;;3.60;;
8540;SDS011;4308;51.294;6.590;2023-07-31T13:52:11;4.83;;;3.70;;
8540;SDS011;4308;51.294;6.590;2023-07-31T13:54:38;5.30;;;3.47;;
8540;SDS011;4308;51.294;6.590;2023-07-31T13:57:06;8.20;;;3.87;;
8540;SDS011;4308;51.294;6.590;2023-07-31T13:59:34;7.47;;;4.00;;
8540;SDS011;4308;51.294;6.590;2023-07-31T14:02:02;5.13;;;3.47;;
8540;SDS011;4308;51.294;6.590;2023-07-31T14:04:29;5.30;;;3.73;;
8540;SDS011;4308;51.294;6.590;2023-07-31T14:06:58;6.50;;;3.70;;
8540;SDS011;4308;51.294;6.590;2023-07-31T14:09:25;5.57;;;3.40;;
8540;SDS011;4308;51.294;6.590;2023-07-31T14:11:53;8.87;;;3.70;;
8540;SDS011;4308;51.294;6.590;2023-07-31T14:14:21;5.40;;;3.80;;
8540;SDS011;4308;51.294;6.590;2023-07-31T14:16:49;4.67;;;3.60;;
8540;SDS011;4308;51.294;6.590;2023-07-31T14:19:16;4.60;;;3.40;;
8540;SDS011;4308;51.294;6.590;2023-07-31T14:21:44;5.43;;;3.63;;
8540;SDS011;4308;51.294;6.590;2023-07-31T14:24:26;6.50;;;3.60;;
8540;SDS011;4308;51.294;6.590;2023-07-31T14:26:54;4.80;;;3.17;;
8540;SDS011;4308;51.294;6.590;2023-07-31T14:29:21;4.97;;;3.60;;
8540;SDS011;4308;51.294;6.590;2023-07-31T14:31:49;6.90;;;3.60;;
8540;SDS011;4308;51.294;6.590;2023-07-31T14:34:17;6.60;;;3.50;;
8540;SDS011;4308;51.294;6.590;2023-07-31T14:36:44;6.30;;;3.77;;
8540;SDS011;4308;51.294;6.590;2023-07-31T14:39:12;4.13;;;3.50;;
8540;SDS011;4308;51.294;6.590;2023-07-31T14:41:41;9.20;;;3.93;;
8540;SDS011;4308;51.294;6.590;2023-07-31T14:44:09;5.47;;;3.53;;
8540;SDS011;4308;51.294;6.590;2023-07-31T14:46:36;4.70;;;4.00;;
8540;SDS011;4308;51.294;6.590;2023-07-31T14:49:05;8.47;;;3.80;;
8540;SDS011;4308;51.294;6.590;2023-07-31T14:51:32;5.80;;;3.83;;
8540;SDS011;4308;51.294;6.590;2023-07-31T14:54:00;5.87;;;3.50;;
8540;SDS011;4308;51.294;6.590;2023-07-31T14:56:27;5.80;;;3.80;;
8540;SDS011;4308;51.294;6.590;2023-07-31T14:58:55;7.03;;;3.60;;
8540;SDS011;4308;51.294;6.590;2023-07-31T15:01:23;5.87;;;3.53;;
8540;SDS011;4308;51.294;6.590;2023-07-31T15:03:52;7.13;;;3.87;;
8540;SDS011;4308;51.294;6.590;2023-07-31T15:06:19;4.73;;;3.97;;
8540;SDS011;4308;51.294;6.590;2023-07-31T15:08:47;3.83;;;3.43;;
8540;SDS011;4308;51.294;6.590;2023-07-31T15:11:15;5.93;;;3.77;;
8540;SDS011;4308;51.294;6.590;2023-07-31T15:13:42;6.37;;;4.03;;
8540;SDS011;4308;51.294;6.590;2023-07-31T15:16:11;5.80;;;4.10;;
8540;SDS011;4308;51.294;6.590;2023-07-31T15:18:38;6.43;;;4.30;;
8540;SDS011;4308;51.294;6.590;2023-07-31T15:21:06;6.73;;;4.40;;
8540;SDS011;4308;51.294;6.590;2023-07-31T15:23:34;8.10;;;4.10;;
8540;SDS011;4308;51.294;6.590;2023-07-31T15:26:01;6.93;;;4.30;;
8540;SDS011;4308;51.294;6.590;2023-07-31T15:28:32;6.70;;;3.97;;
8540;SDS011;4308;51.294;6.590;2023-07-31T15:31:02;6.33;;;4.00;;
8540;SDS011;4308;51.294;6.590;2023-07-31T15:33:30;6.40;;;4.13;;
8540;SDS011;4308;51.294;6.590;2023-07-31T15:35:59;4.67;;;3.87;;